Alpena, South Dakota
Current Conditions -  °F | °C
As of 9:55 PM on Sunday 25 Jan 2015 (Local Time) from KHON Reporting Station
Few Clouds Few Clouds  
Wind Chill: 24°   Ceiling: Unl
Heat Index: 32°   Visibility: 10mi
Dew Point: 30°   Wind: 9mph
Humidity: 92%   Direction: 180°S
Pressure: 29.95"   Gusts: NA
Location:  44.18°N, 98.37°W
Report Text: KHON 260355Z AUTO 18008KT 10SM FEW075 00/M01 A2995 RMK AO2 SLP156 T00001011
Loading
Personal Weather Stations






























Interactive Weather Map New forecast layout! Learn more

10-Day Weather Forecast

Advertisements
Track Severe Weather on mobile